createdAt,value
2023-01-17T00:00:05.555Z,14.10
2023-01-17T00:01:05.458Z,15.40
2023-01-17T00:02:05.452Z,11.00
2023-01-17T00:03:05.453Z,11.20
2023-01-17T00:04:05.466Z,10.70
2023-01-17T00:05:05.428Z,12.90
2023-01-17T00:06:05.402Z,11.80
2023-01-17T00:07:05.461Z,14.20
2023-01-17T00:08:05.376Z,14.90
2023-01-17T00:09:05.386Z,12.00
2023-01-17T00:10:05.357Z,13.40
2023-01-17T00:11:05.377Z,13.80
2023-01-17T00:12:05.344Z,16.60
2023-01-17T00:13:05.363Z,14.40
2023-01-17T00:14:05.334Z,13.90
2023-01-17T00:15:05.326Z,14.90
2023-01-17T00:16:05.314Z,14.90
2023-01-17T00:17:05.307Z,15.80
2023-01-17T00:18:05.292Z,17.60
2023-01-17T00:19:05.289Z,18.40
2023-01-17T00:20:05.259Z,16.70
2023-01-17T00:21:05.275Z,16.40
2023-01-17T00:22:05.237Z,15.70
2023-01-17T00:23:05.247Z,16.60
2023-01-17T00:24:05.256Z,16.80
2023-01-17T00:25:05.227Z,15.10
2023-01-17T00:26:05.344Z,13.10
2023-01-17T00:27:05.207Z,12.70
2023-01-17T00:28:05.177Z,13.60
2023-01-17T00:29:05.214Z,16.00
2023-01-17T00:30:05.161Z,14.00
2023-01-17T00:31:05.236Z,14.80
2023-01-17T00:32:05.133Z,13.90
2023-01-17T00:33:05.148Z,15.20
2023-01-17T00:34:05.120Z,16.10
2023-01-17T00:35:05.147Z,16.30
2023-01-17T00:36:05.093Z,13.10
2023-01-17T00:37:05.118Z,14.20
2023-01-17T00:38:05.092Z,12.90
2023-01-17T00:39:05.090Z,12.80
2023-01-17T00:40:05.295Z,12.10
2023-01-17T00:41:05.068Z,13.60
2023-01-17T00:42:05.035Z,12.90
2023-01-17T00:43:05.042Z,11.20
2023-01-17T00:44:05.026Z,10.30
2023-01-17T00:45:05.022Z,10.00
2023-01-17T00:46:05.017Z,8.80
2023-01-17T00:47:05.011Z,9.10
2023-01-17T00:48:04.987Z,9.60
2023-01-17T00:49:04.988Z,10.90
2023-01-17T00:50:04.951Z,10.60
2023-01-17T00:51:04.988Z,10.60
2023-01-17T00:52:04.941Z,11.40
2023-01-17T00:53:04.950Z,12.40
2023-01-17T00:54:04.911Z,15.50
2023-01-17T00:55:04.922Z,12.90
2023-01-17T00:56:04.885Z,15.80
2023-01-17T00:57:04.917Z,14.50
2023-01-17T00:58:04.871Z,16.00
2023-01-17T00:59:04.893Z,14.60
2023-01-17T01:00:04.911Z,17.20
2023-01-17T01:01:04.957Z,14.80
2023-01-17T01:02:05.135Z,15.20
2023-01-17T01:03:04.837Z,16.30
2023-01-17T01:04:04.804Z,15.20
2023-01-17T01:05:04.824Z,17.00
2023-01-17T01:06:04.799Z,19.80
2023-01-17T01:07:04.807Z,14.60
2023-01-17T01:08:04.793Z,17.40
2023-01-17T01:09:04.795Z,20.00
2023-01-17T01:10:04.754Z,20.00
2023-01-17T01:11:04.765Z,19.40
2023-01-17T01:12:04.731Z,19.00
2023-01-17T01:13:04.769Z,19.90
2023-01-17T01:14:04.705Z,19.80
2023-01-17T01:15:04.718Z,19.10
2023-01-17T01:16:04.804Z,21.30
2023-01-17T01:17:04.696Z,23.80
2023-01-17T01:18:04.663Z,24.50
2023-01-17T01:19:04.711Z,23.40
2023-01-17T01:20:04.686Z,23.50
2023-01-17T01:21:04.661Z,25.50
2023-01-17T01:22:04.623Z,24.60
2023-01-17T01:23:04.636Z,26.20
2023-01-17T01:24:04.633Z,25.10
2023-01-17T01:25:04.626Z,26.30
2023-01-17T01:26:04.587Z,24.50
2023-01-17T01:27:04.600Z,26.10
2023-01-17T01:28:04.572Z,28.40
2023-01-17T01:29:04.597Z,26.30
2023-01-17T01:30:04.559Z,22.40
2023-01-17T01:31:04.562Z,23.70
2023-01-17T01:32:04.529Z,22.60
2023-01-17T01:33:04.536Z,24.00
2023-01-17T01:34:04.501Z,23.10
2023-01-17T01:35:04.554Z,25.00
2023-01-17T01:36:04.481Z,21.40
2023-01-17T01:37:04.496Z,22.80
2023-01-17T01:38:04.462Z,20.30
2023-01-17T01:39:04.486Z,22.90
2023-01-17T01:40:04.516Z,23.00
2023-01-17T01:41:04.468Z,22.20
2023-01-17T01:42:04.424Z,23.20
2023-01-17T01:43:04.432Z,18.00
2023-01-17T01:44:04.423Z,21.20
2023-01-17T01:45:04.424Z,18.30
2023-01-17T01:46:04.438Z,20.20
2023-01-17T01:47:04.416Z,20.00
2023-01-17T01:48:04.386Z,22.10
2023-01-17T01:49:04.378Z,21.20
2023-01-17T01:50:04.363Z,19.10
2023-01-17T01:51:04.362Z,19.80
2023-01-17T01:52:04.337Z,20.60
2023-01-17T01:53:04.348Z,19.60
2023-01-17T01:54:04.302Z,20.70
2023-01-17T01:55:04.313Z,19.80
2023-01-17T01:56:04.288Z,19.90
2023-01-17T01:57:04.305Z,20.70
2023-01-17T01:58:04.282Z,22.40
2023-01-17T01:59:04.327Z,16.50
2023-01-17T02:00:04.249Z,18.40
2023-01-17T02:01:04.367Z,22.90
2023-01-17T02:02:04.230Z,18.80
2023-01-17T02:03:04.253Z,20.20
2023-01-17T02:04:04.204Z,20.10
2023-01-17T02:05:04.870Z,17.70
2023-01-17T02:06:04.182Z,22.10
2023-01-17T02:07:04.196Z,22.80
2023-01-17T02:08:04.177Z,23.90
2023-01-17T02:09:04.195Z,23.00
2023-01-17T02:10:04.159Z,23.00
2023-01-17T02:11:04.150Z,19.60
2023-01-17T02:12:04.136Z,21.20
2023-01-17T02:13:04.165Z,25.20
2023-01-17T02:14:04.105Z,24.10
2023-01-17T02:15:04.106Z,23.60
2023-01-17T02:16:04.089Z,26.30
2023-01-17T02:17:04.093Z,25.70
2023-01-17T02:18:04.053Z,20.40
2023-01-17T02:19:04.086Z,20.60
2023-01-17T02:20:04.037Z,18.50
2023-01-17T02:21:04.049Z,21.10
2023-01-17T02:22:04.018Z,20.40
2023-01-17T02:23:04.029Z,19.00
2023-01-17T02:24:03.997Z,20.40
2023-01-17T02:25:04.042Z,19.10
2023-01-17T02:26:03.976Z,19.50
2023-01-17T02:27:04.003Z,22.30
2023-01-17T02:28:03.965Z,20.70
2023-01-17T02:29:03.972Z,21.20
2023-01-17T02:30:03.974Z,20.90
2023-01-17T02:31:03.958Z,20.90
2023-01-17T02:32:03.917Z,20.10
2023-01-17T02:33:03.927Z,20.60
2023-01-17T02:34:03.947Z,20.30
2023-01-17T02:35:03.909Z,21.90
2023-01-17T02:36:03.888Z,21.00
2023-01-17T02:37:03.888Z,20.70
2023-01-17T02:38:03.870Z,19.00
2023-01-17T02:39:03.891Z,18.90
2023-01-17T02:40:03.836Z,21.30
2023-01-17T02:41:03.886Z,17.20
2023-01-17T02:42:03.812Z,16.50
2023-01-17T02:43:03.831Z,17.10
2023-01-17T02:44:03.818Z,17.90
2023-01-17T02:45:03.808Z,16.00
2023-01-17T02:46:03.846Z,17.00
2023-01-17T02:47:03.799Z,16.40
2023-01-17T02:48:03.757Z,14.10
2023-01-17T02:49:03.767Z,17.00
2023-01-17T02:50:03.736Z,15.90
2023-01-17T02:51:03.760Z,13.80
2023-01-17T02:52:03.723Z,16.30
2023-01-17T02:53:03.752Z,13.50
2023-01-17T02:54:03.713Z,13.20
2023-01-17T02:55:03.715Z,14.70
2023-01-17T02:56:03.681Z,12.50
2023-01-17T02:57:03.695Z,13.00
2023-01-17T02:58:03.684Z,11.70
2023-01-17T02:59:03.685Z,11.40
2023-01-17T03:00:03.637Z,11.50
2023-01-17T03:01:03.756Z,12.00
2023-01-17T03:02:03.881Z,12.30
2023-01-17T03:03:03.676Z,13.70
2023-01-17T03:04:03.595Z,13.50
2023-01-17T03:05:03.630Z,14.90
2023-01-17T03:06:03.570Z,13.60
2023-01-17T03:07:03.591Z,13.60
2023-01-17T03:08:03.578Z,13.60
2023-01-17T03:09:03.575Z,16.50
2023-01-17T03:10:03.570Z,14.60
2023-01-17T03:11:03.550Z,13.20
2023-01-17T03:12:03.543Z,14.70
2023-01-17T03:13:03.527Z,12.80
2023-01-17T03:14:03.505Z,9.20
2023-01-17T03:15:03.520Z,8.10
2023-01-17T03:16:03.487Z,8.90
2023-01-17T03:17:03.486Z,7.10
2023-01-17T03:18:03.448Z,5.50
2023-01-17T03:19:03.474Z,7.60
2023-01-17T03:20:03.458Z,6.80
2023-01-17T03:21:03.441Z,7.00
2023-01-17T03:22:03.412Z,5.60
2023-01-17T03:23:03.439Z,7.50
2023-01-17T03:24:03.390Z,6.90
2023-01-17T03:25:03.423Z,7.10
2023-01-17T03:26:03.377Z,7.80
2023-01-17T03:27:03.380Z,10.80
2023-01-17T03:28:03.362Z,9.70
2023-01-17T03:29:03.378Z,9.30
2023-01-17T03:30:03.336Z,10.20
2023-01-17T03:31:03.462Z,9.20
2023-01-17T03:32:03.312Z,8.90
2023-01-17T03:33:03.320Z,8.80
2023-01-17T03:34:03.286Z,9.70
2023-01-17T03:35:03.304Z,8.40
2023-01-17T03:36:03.284Z,7.40
2023-01-17T03:37:03.310Z,7.70
2023-01-17T03:38:03.252Z,9.60
2023-01-17T03:39:03.267Z,8.60
2023-01-17T03:40:03.237Z,10.20
2023-01-17T03:41:03.241Z,11.30
2023-01-17T03:42:03.225Z,11.70
2023-01-17T03:43:03.224Z,13.70
2023-01-17T03:44:03.192Z,14.20
2023-01-17T03:45:03.201Z,13.40
2023-01-17T03:46:03.201Z,13.80
2023-01-17T03:47:03.207Z,14.10
2023-01-17T03:48:03.168Z,15.20
2023-01-17T03:49:03.176Z,15.00
2023-01-17T03:50:03.146Z,16.80
2023-01-17T03:51:03.168Z,16.30
2023-01-17T03:52:03.111Z,15.80
2023-01-17T03:53:03.151Z,15.50
2023-01-17T03:54:03.085Z,17.60
2023-01-17T03:55:03.101Z,13.90
2023-01-17T03:56:03.071Z,14.50
2023-01-17T03:57:03.086Z,14.90
2023-01-17T03:58:03.079Z,15.80
2023-01-17T03:59:03.081Z,14.80
2023-01-17T04:00:03.034Z,15.20
2023-01-17T04:01:03.136Z,12.90
2023-01-17T04:02:03.214Z,12.10
2023-01-17T04:03:03.023Z,8.30
2023-01-17T04:04:03.004Z,8.90
2023-01-17T04:05:02.998Z,8.60
2023-01-17T04:06:02.967Z,8.40
2023-01-17T04:07:02.996Z,6.60
2023-01-17T04:08:02.944Z,6.80
2023-01-17T04:09:02.989Z,9.30
2023-01-17T04:10:02.931Z,8.50
2023-01-17T04:11:02.925Z,8.40
2023-01-17T04:12:02.944Z,6.80
2023-01-17T04:13:02.898Z,8.00
2023-01-17T04:14:02.919Z,7.70
2023-01-17T04:15:02.934Z,8.00
2023-01-17T04:16:02.890Z,9.10
2023-01-17T04:17:02.883Z,9.00
2023-01-17T04:18:02.855Z,9.30
2023-01-17T04:19:02.864Z,9.60
2023-01-17T04:20:02.854Z,9.90
2023-01-17T04:21:02.847Z,11.30
2023-01-17T04:22:02.817Z,11.40
2023-01-17T04:23:02.819Z,12.00
2023-01-17T04:24:02.784Z,11.30
2023-01-17T04:25:02.812Z,12.90
2023-01-17T04:26:02.780Z,12.90
2023-01-17T04:27:02.789Z,11.90
2023-01-17T04:28:02.756Z,12.30
2023-01-17T04:29:02.761Z,13.00
2023-01-17T04:30:02.764Z,13.60
2023-01-17T04:31:02.850Z,14.10
2023-01-17T04:32:02.713Z,13.10
2023-01-17T04:33:02.725Z,13.00
2023-01-17T04:34:02.688Z,12.40
2023-01-17T04:35:02.699Z,12.80
2023-01-17T04:36:02.683Z,12.30
2023-01-17T04:37:02.693Z,13.30
2023-01-17T04:38:02.669Z,13.40
2023-01-17T04:39:02.683Z,13.60
2023-01-17T04:40:02.637Z,13.60
2023-01-17T04:41:02.663Z,12.60
2023-01-17T04:42:02.633Z,11.70
2023-01-17T04:43:02.639Z,12.90
2023-01-17T04:44:02.585Z,13.40
2023-01-17T04:45:02.608Z,15.10
2023-01-17T04:46:02.577Z,14.80
2023-01-17T04:47:02.580Z,14.60
2023-01-17T04:48:02.578Z,15.30
2023-01-17T04:49:02.565Z,16.60
2023-01-17T04:50:02.524Z,17.50
2023-01-17T04:51:02.550Z,18.20
2023-01-17T04:52:02.507Z,19.40
2023-01-17T04:53:02.565Z,18.40
2023-01-17T04:54:02.503Z,20.40
2023-01-17T04:55:02.507Z,21.10
2023-01-17T04:56:02.474Z,23.20
2023-01-17T04:57:02.486Z,24.20
2023-01-17T04:58:02.447Z,22.90
2023-01-17T04:59:02.475Z,26.10
2023-01-17T05:00:02.437Z,26.60
2023-01-17T05:01:02.513Z,25.00
2023-01-17T05:02:02.517Z,26.30
2023-01-17T05:03:02.524Z,27.40
2023-01-17T05:04:02.418Z,26.00
2023-01-17T05:05:02.427Z,28.60
2023-01-17T05:06:02.373Z,24.20
2023-01-17T05:07:02.389Z,28.00
2023-01-17T05:08:02.346Z,28.80
2023-01-17T05:09:02.360Z,29.50
2023-01-17T05:10:02.358Z,27.40
2023-01-17T05:11:02.341Z,28.60
2023-01-17T05:12:02.303Z,25.90
2023-01-17T05:13:02.324Z,23.90
2023-01-17T05:14:02.305Z,25.90
2023-01-17T05:15:02.314Z,28.10
2023-01-17T05:16:02.447Z,27.20
2023-01-17T05:17:02.279Z,30.10
2023-01-17T05:18:02.249Z,29.10
2023-01-17T05:19:02.259Z,31.10
2023-01-17T05:20:02.229Z,31.70
2023-01-17T05:21:02.271Z,32.70
2023-01-17T05:22:02.208Z,33.60
2023-01-17T05:23:02.220Z,29.70
2023-01-17T05:24:02.186Z,27.60
2023-01-17T05:25:02.197Z,29.60
2023-01-17T05:26:02.182Z,27.40
2023-01-17T05:27:02.183Z,27.30
2023-01-17T05:28:02.148Z,30.40
2023-01-17T05:29:02.162Z,28.90
2023-01-17T05:30:02.167Z,29.50
2023-01-17T05:31:02.171Z,28.00
2023-01-17T05:32:02.124Z,31.30
2023-01-17T05:33:02.118Z,31.60
2023-01-17T05:34:02.093Z,29.80
2023-01-17T05:35:02.126Z,27.80
2023-01-17T05:36:02.069Z,28.20
2023-01-17T05:37:02.103Z,30.90
2023-01-17T05:38:02.098Z,30.60
2023-01-17T05:39:02.065Z,30.80
2023-01-17T05:40:02.027Z,28.80
2023-01-17T05:41:02.061Z,29.60
2023-01-17T05:42:02.024Z,31.30
2023-01-17T05:43:02.039Z,33.00
2023-01-17T05:44:01.989Z,32.30
2023-01-17T05:45:01.999Z,31.90
2023-01-17T05:46:02.065Z,31.90
2023-01-17T05:47:01.981Z,32.00
2023-01-17T05:48:01.973Z,32.60
2023-01-17T05:49:01.964Z,30.10
2023-01-17T05:50:01.935Z,33.20
2023-01-17T05:51:01.946Z,32.30
2023-01-17T05:52:01.902Z,32.40
2023-01-17T05:53:01.927Z,33.20
2023-01-17T05:54:01.909Z,32.90
2023-01-17T05:55:01.913Z,30.00
2023-01-17T05:56:01.874Z,31.20
2023-01-17T05:57:01.881Z,31.50
2023-01-17T05:58:01.852Z,31.50
2023-01-17T05:59:01.879Z,29.20
2023-01-17T06:00:01.827Z,28.70
2023-01-17T06:01:01.907Z,30.70
2023-01-17T06:02:01.805Z,30.40
2023-01-17T06:03:01.843Z,30.30
2023-01-17T06:04:01.794Z,29.50
2023-01-17T06:05:03.431Z,29.30
2023-01-17T06:06:01.775Z,28.40
2023-01-17T06:07:01.784Z,27.00
2023-01-17T06:08:01.749Z,28.20
2023-01-17T06:09:01.757Z,27.10
2023-01-17T06:10:01.769Z,27.40
2023-01-17T06:11:01.747Z,26.30
2023-01-17T06:12:01.704Z,26.70
2023-01-17T06:13:01.724Z,27.90
2023-01-17T06:14:01.691Z,22.50
2023-01-17T06:15:01.704Z,23.80
2023-01-17T06:16:01.729Z,23.40
2023-01-17T06:17:01.693Z,23.50
2023-01-17T06:18:01.644Z,22.70
2023-01-17T06:19:01.685Z,23.20
2023-01-17T06:20:01.631Z,23.90
2023-01-17T06:21:01.670Z,23.50
2023-01-17T06:22:01.622Z,22.10
2023-01-17T06:23:01.621Z,22.30
2023-01-17T06:24:03.979Z,21.90
2023-01-17T06:25:01.600Z,21.60
2023-01-17T06:26:01.567Z,19.10
2023-01-17T06:27:01.601Z,19.60
2023-01-17T06:28:01.550Z,20.10
2023-01-17T06:29:01.565Z,20.30
2023-01-17T06:30:01.540Z,21.40
2023-01-17T06:31:01.669Z,21.70
2023-01-17T06:32:01.896Z,22.30
2023-01-17T06:33:01.543Z,20.40
2023-01-17T06:34:01.517Z,20.30
2023-01-17T06:35:01.531Z,20.40
2023-01-17T06:36:01.470Z,22.00
2023-01-17T06:37:01.511Z,21.20
2023-01-17T06:38:01.461Z,20.90
2023-01-17T06:39:01.463Z,21.30
2023-01-17T06:40:01.431Z,21.10
2023-01-17T06:41:01.457Z,22.90
2023-01-17T06:42:01.418Z,22.10
2023-01-17T06:43:01.453Z,23.70
2023-01-17T06:44:01.396Z,23.30
2023-01-17T06:45:01.397Z,23.40
2023-01-17T06:46:01.371Z,22.00
2023-01-17T06:47:01.388Z,24.30
2023-01-17T06:48:01.363Z,23.90
2023-01-17T06:49:01.369Z,24.10
2023-01-17T06:50:01.324Z,23.70
2023-01-17T06:51:01.343Z,24.80
2023-01-17T06:52:01.306Z,25.20
2023-01-17T06:53:01.316Z,24.00
2023-01-17T06:54:01.333Z,25.40
2023-01-17T06:55:01.308Z,25.40
2023-01-17T06:56:01.271Z,25.90
2023-01-17T06:57:01.274Z,25.60
2023-01-17T06:58:01.255Z,25.20
2023-01-17T06:59:01.259Z,25.20
2023-01-17T07:00:01.597Z,26.40
2023-01-17T07:01:01.304Z,27.30
2023-01-17T07:02:01.208Z,26.20
2023-01-17T07:03:01.226Z,25.20
2023-01-17T07:04:01.247Z,25.90
2023-01-17T07:05:01.230Z,27.70
2023-01-17T07:06:01.169Z,26.10
2023-01-17T07:07:01.180Z,26.00
2023-01-17T07:08:01.144Z,26.40
2023-01-17T07:09:01.158Z,25.60
2023-01-17T07:10:01.138Z,26.10
2023-01-17T07:11:01.145Z,27.60
2023-01-17T07:12:01.105Z,27.50
2023-01-17T07:13:01.112Z,26.80
2023-01-17T07:14:01.083Z,25.90
2023-01-17T07:15:01.105Z,23.50
2023-01-17T07:16:01.203Z,24.40
2023-01-17T07:17:01.075Z,23.80
2023-01-17T07:18:01.042Z,25.90
2023-01-17T07:19:01.057Z,24.70
2023-01-17T07:20:01.025Z,25.10
2023-01-17T07:21:01.041Z,23.80
2023-01-17T07:22:01.013Z,26.70
2023-01-17T07:23:01.014Z,24.40
2023-01-17T07:24:00.997Z,24.10
2023-01-17T07:25:01.003Z,25.50
2023-01-17T07:26:00.959Z,25.00
2023-01-17T07:27:01.007Z,23.80
2023-01-17T07:28:00.944Z,22.90
2023-01-17T07:29:00.953Z,25.40
2023-01-17T07:30:00.930Z,26.10
2023-01-17T07:31:00.985Z,24.20
2023-01-17T07:32:00.900Z,23.90
2023-01-17T07:33:00.924Z,23.40
2023-01-17T07:34:00.881Z,22.10
2023-01-17T07:35:00.895Z,23.60
2023-01-17T07:36:00.865Z,24.20
2023-01-17T07:37:00.882Z,24.40
2023-01-17T07:38:00.857Z,23.10
2023-01-17T07:39:00.853Z,24.60
2023-01-17T07:40:00.828Z,24.30
2023-01-17T07:41:00.833Z,25.70
2023-01-17T07:42:00.851Z,24.50
2023-01-17T07:43:00.819Z,23.80
2023-01-17T07:44:00.794Z,24.10
2023-01-17T07:45:00.792Z,24.70
2023-01-17T07:46:02.199Z,22.90
2023-01-17T07:47:00.784Z,24.10
2023-01-17T07:48:00.747Z,24.60
2023-01-17T07:49:00.776Z,23.80
2023-01-17T07:50:00.721Z,23.50
2023-01-17T07:51:00.732Z,24.50
2023-01-17T07:52:00.714Z,24.50
2023-01-17T07:53:00.713Z,22.30
2023-01-17T07:54:00.682Z,21.60
2023-01-17T07:55:00.714Z,23.00
2023-01-17T07:56:00.665Z,22.90
2023-01-17T07:57:00.675Z,21.70
2023-01-17T07:58:02.855Z,22.40
2023-01-17T07:59:00.660Z,24.00
2023-01-17T08:00:00.647Z,22.50
2023-01-17T08:01:00.780Z,23.30
2023-01-17T08:02:00.809Z,24.40
2023-01-17T08:03:00.618Z,22.60
2023-01-17T08:04:00.632Z,22.60
2023-01-17T08:05:00.616Z,21.30
2023-01-17T08:06:00.571Z,21.40
2023-01-17T08:07:00.571Z,20.90
2023-01-17T08:08:00.539Z,20.50
2023-01-17T08:09:00.557Z,21.70
2023-01-17T08:10:00.528Z,21.50
2023-01-17T08:11:00.561Z,21.80
2023-01-17T08:12:00.529Z,23.00
2023-01-17T08:13:00.527Z,23.30
2023-01-17T08:14:00.496Z,21.70
2023-01-17T08:15:00.495Z,21.40
2023-01-17T08:16:00.529Z,20.00
2023-01-17T08:17:00.483Z,20.70
2023-01-17T08:18:00.443Z,21.90
2023-01-17T08:19:00.448Z,22.30
2023-01-17T08:20:00.435Z,22.90
2023-01-17T08:21:00.431Z,20.40
2023-01-17T08:22:00.423Z,21.60
2023-01-17T08:23:00.416Z,19.90
2023-01-17T08:24:00.379Z,20.80
2023-01-17T08:25:00.391Z,19.80
2023-01-17T08:26:00.358Z,20.10
2023-01-17T08:27:00.453Z,21.30
2023-01-17T08:28:00.354Z,21.90
2023-01-17T08:29:00.429Z,19.60
2023-01-17T08:30:00.319Z,19.20
2023-01-17T08:31:00.334Z,20.90
2023-01-17T08:32:00.306Z,21.60
2023-01-17T08:33:00.330Z,21.60
2023-01-17T08:34:00.321Z,20.90
2023-01-17T08:35:00.273Z,20.30
2023-01-17T08:36:00.278Z,19.90
2023-01-17T08:37:00.252Z,21.00
2023-01-17T08:38:00.257Z,21.50
2023-01-17T08:39:00.236Z,20.70
2023-01-17T08:40:00.238Z,20.50
2023-01-17T08:41:00.213Z,20.80
2023-01-17T08:42:00.219Z,20.00
2023-01-17T08:43:00.209Z,21.60
2023-01-17T08:44:00.229Z,21.40
2023-01-17T08:45:00.168Z,21.20
2023-01-17T08:46:00.480Z,22.20
2023-01-17T08:47:00.148Z,23.50
2023-01-17T08:48:00.163Z,22.50
2023-01-17T08:49:00.214Z,21.40
2023-01-17T08:50:00.168Z,20.80
2023-01-17T08:51:00.111Z,22.40
2023-01-17T08:52:00.137Z,20.90
2023-01-17T08:53:01.200Z,18.90
2023-01-17T08:54:00.155Z,19.10
2023-01-17T08:55:00.105Z,19.50
2023-01-17T08:56:00.103Z,18.90
2023-01-17T08:57:00.063Z,20.70
2023-01-17T08:58:00.109Z,20.00
2023-01-17T08:59:00.025Z,18.10
2023-01-17T09:00:00.042Z,19.80
2023-01-17T09:01:00.142Z,17.10
2023-01-17T09:02:00.211Z,18.10
2023-01-17T09:02:59.989Z,17.80
2023-01-17T09:04:00.025Z,17.50
2023-01-17T09:04:59.977Z,16.20
2023-01-17T09:06:00.006Z,17.20
2023-01-17T09:06:59.946Z,16.90
2023-01-17T09:07:59.959Z,16.80
2023-01-17T09:08:59.925Z,16.20
2023-01-17T09:09:59.950Z,17.20
2023-01-17T09:10:59.913Z,17.50
2023-01-17T09:11:59.930Z,16.70
2023-01-17T09:12:59.946Z,16.30
2023-01-17T09:13:59.901Z,15.20
2023-01-17T09:14:59.866Z,15.80
2023-01-17T09:15:59.877Z,16.40
2023-01-17T09:16:59.867Z,16.60
2023-01-17T09:17:59.869Z,17.00
2023-01-17T09:18:59.829Z,16.00
2023-01-17T09:19:59.838Z,16.90
2023-01-17T09:20:59.807Z,16.30
2023-01-17T09:21:59.832Z,16.80
2023-01-17T09:22:59.797Z,16.60
2023-01-17T09:23:59.802Z,15.20
2023-01-17T09:24:59.766Z,15.40
2023-01-17T09:25:59.781Z,16.80
2023-01-17T09:26:59.747Z,15.40
2023-01-17T09:27:59.829Z,16.00
2023-01-17T09:28:59.727Z,15.30
2023-01-17T09:29:59.777Z,15.30
2023-01-17T09:30:59.749Z,15.40
2023-01-17T09:31:59.715Z,14.90
2023-01-17T09:32:59.681Z,15.60
2023-01-17T09:33:59.709Z,16.30
2023-01-17T09:34:59.664Z,15.60
2023-01-17T09:35:59.680Z,15.90
2023-01-17T09:36:59.646Z,16.50
2023-01-17T09:37:59.660Z,16.80
2023-01-17T09:38:59.660Z,14.20
2023-01-17T09:39:59.648Z,18.10
2023-01-17T09:40:59.602Z,18.80
2023-01-17T09:41:59.622Z,19.00
2023-01-17T09:42:59.581Z,18.90
2023-01-17T09:43:59.596Z,17.40
2023-01-17T09:44:59.575Z,18.00
2023-01-17T09:45:59.688Z,18.90
2023-01-17T09:46:59.587Z,20.10
2023-01-17T09:47:59.555Z,17.90
2023-01-17T09:48:59.532Z,18.60
2023-01-17T09:49:59.553Z,18.10
2023-01-17T09:50:59.513Z,20.40
2023-01-17T09:51:59.517Z,20.70
2023-01-17T09:52:59.479Z,21.00
2023-01-17T09:53:59.493Z,23.40
2023-01-17T09:54:59.465Z,19.30
2023-01-17T09:55:59.486Z,20.00
2023-01-17T09:56:59.440Z,20.40
2023-01-17T09:57:59.454Z,20.40
2023-01-17T09:58:59.448Z,18.70
2023-01-17T10:00:03.528Z,17.80
2023-01-17T10:00:59.539Z,16.30
2023-01-17T10:01:59.551Z,15.70
2023-01-17T10:02:59.430Z,15.70
2023-01-17T10:03:59.509Z,15.00
2023-01-17T10:04:59.386Z,13.70
2023-01-17T10:05:59.401Z,13.40
2023-01-17T10:06:59.340Z,15.60
2023-01-17T10:07:59.364Z,15.50
2023-01-17T10:08:59.339Z,12.30
2023-01-17T10:09:59.338Z,13.10
2023-01-17T10:10:59.301Z,13.80
2023-01-17T10:11:59.320Z,14.50
2023-01-17T10:12:59.282Z,14.70
2023-01-17T10:13:59.297Z,12.30
2023-01-17T10:14:59.259Z,12.90
2023-01-17T10:16:00.214Z,11.80
2023-01-17T10:16:59.307Z,11.60
2023-01-17T10:17:59.254Z,12.40
2023-01-17T10:18:59.222Z,11.30
2023-01-17T10:19:59.231Z,11.20
2023-01-17T10:20:59.197Z,13.30
2023-01-17T10:21:59.220Z,12.00
2023-01-17T10:22:59.188Z,12.10
2023-01-17T10:23:59.211Z,13.30
2023-01-17T10:24:59.213Z,12.90
2023-01-17T10:25:59.174Z,13.80
2023-01-17T10:26:59.141Z,14.50
2023-01-17T10:27:59.200Z,15.00
2023-01-17T10:28:59.117Z,12.80
2023-01-17T10:29:59.130Z,14.80
2023-01-17T10:30:59.126Z,14.30
2023-01-17T10:31:59.109Z,13.80
2023-01-17T10:32:59.077Z,13.90
2023-01-17T10:33:59.099Z,14.70
2023-01-17T10:34:59.060Z,14.30
2023-01-17T10:35:59.070Z,13.90
2023-01-17T10:36:59.038Z,12.80
2023-01-17T10:37:59.051Z,12.50
2023-01-17T10:38:59.029Z,11.20
2023-01-17T10:39:59.029Z,11.80
2023-01-17T10:40:58.993Z,12.00
2023-01-17T10:41:59.009Z,12.60
2023-01-17T10:42:58.981Z,13.50
2023-01-17T10:43:58.993Z,13.40
2023-01-17T10:44:58.970Z,12.80
2023-01-17T10:45:58.999Z,12.50
2023-01-17T10:46:58.933Z,13.30
2023-01-17T10:47:58.953Z,13.80
2023-01-17T10:48:58.916Z,13.60
2023-01-17T10:49:58.955Z,13.80
2023-01-17T10:50:58.893Z,14.80
2023-01-17T10:51:58.964Z,14.10
2023-01-17T10:52:58.888Z,13.40
2023-01-17T10:54:01.666Z,12.50
2023-01-17T10:54:58.853Z,13.50
2023-01-17T10:55:58.876Z,12.90
2023-01-17T10:56:58.835Z,12.00
2023-01-17T10:57:58.845Z,13.20
2023-01-17T10:58:58.814Z,11.40
2023-01-17T10:59:58.823Z,11.70
2023-01-17T11:00:58.835Z,12.10
2023-01-17T11:01:58.858Z,12.90
2023-01-17T11:02:58.797Z,11.80
2023-01-17T11:03:58.803Z,12.20
2023-01-17T11:04:58.755Z,12.80
2023-01-17T11:05:58.770Z,12.00
2023-01-17T11:06:58.740Z,11.80
2023-01-17T11:07:58.743Z,13.00
2023-01-17T11:08:58.707Z,12.20
2023-01-17T11:09:58.722Z,11.90
2023-01-17T11:10:58.689Z,12.70
2023-01-17T11:11:58.723Z,12.20
2023-01-17T11:12:58.670Z,12.20
2023-01-17T11:13:58.689Z,12.50
2023-01-17T11:14:58.772Z,12.20
2023-01-17T11:15:58.692Z,11.80
2023-01-17T11:16:58.631Z,12.00
2023-01-17T11:17:58.650Z,10.80
2023-01-17T11:18:58.614Z,10.80
2023-01-17T11:19:58.620Z,10.90
2023-01-17T11:20:58.618Z,11.00
2023-01-17T11:21:58.600Z,11.50
2023-01-17T11:22:58.581Z,10.90
2023-01-17T11:23:58.584Z,11.50
2023-01-17T11:24:58.547Z,10.80
2023-01-17T11:25:58.588Z,11.80
2023-01-17T11:26:58.527Z,10.90
2023-01-17T11:27:58.568Z,11.20
2023-01-17T11:28:58.508Z,11.80
2023-01-17T11:29:58.518Z,11.20
2023-01-17T11:30:58.505Z,11.90
2023-01-17T11:31:58.501Z,11.20
2023-01-17T11:32:58.464Z,11.70
2023-01-17T11:33:58.487Z,12.40
2023-01-17T11:34:58.441Z,11.90
2023-01-17T11:35:58.457Z,11.30
2023-01-17T11:36:58.425Z,11.50
2023-01-17T11:37:58.440Z,11.50
2023-01-17T11:38:58.438Z,11.50
2023-01-17T11:39:58.421Z,11.70
2023-01-17T11:40:58.386Z,11.90
2023-01-17T11:41:58.394Z,11.90
2023-01-17T11:42:58.360Z,12.80
2023-01-17T11:43:58.378Z,12.30
2023-01-17T11:44:58.352Z,12.20
2023-01-17T11:45:58.408Z,11.30
2023-01-17T11:46:58.319Z,12.00
2023-01-17T11:47:58.341Z,11.20
2023-01-17T11:48:58.298Z,12.10
2023-01-17T11:49:58.339Z,11.90
2023-01-17T11:50:58.278Z,11.30
2023-01-17T11:51:58.290Z,11.40
2023-01-17T11:52:58.258Z,10.80
2023-01-17T11:53:58.273Z,11.10
2023-01-17T11:54:58.240Z,11.40
2023-01-17T11:55:58.281Z,11.60
2023-01-17T11:56:58.220Z,10.90
2023-01-17T11:57:58.229Z,12.10
2023-01-17T11:58:58.194Z,11.50
2023-01-17T11:59:58.208Z,11.60
2023-01-17T12:00:58.261Z,12.30
2023-01-17T12:01:58.189Z,11.60
2023-01-17T12:02:58.157Z,12.10
2023-01-17T12:03:58.207Z,12.10
2023-01-17T12:04:58.186Z,12.40
2023-01-17T12:05:58.151Z,11.10
2023-01-17T12:06:58.682Z,11.70
2023-01-17T12:07:58.131Z,11.30
2023-01-17T12:08:58.097Z,10.30
2023-01-17T12:09:58.103Z,10.50
2023-01-17T12:10:58.079Z,10.80
2023-01-17T12:11:58.102Z,10.60
2023-01-17T12:12:58.052Z,10.80
2023-01-17T12:13:58.066Z,12.20
2023-01-17T12:14:58.029Z,11.40
2023-01-17T12:15:58.082Z,12.00
2023-01-17T12:16:58.009Z,11.80
2023-01-17T12:17:58.031Z,11.60
2023-01-17T12:18:57.989Z,10.60
2023-01-17T12:19:58.003Z,10.20
2023-01-17T12:20:57.965Z,10.70
2023-01-17T12:21:57.985Z,9.70
2023-01-17T12:22:57.977Z,10.60
2023-01-17T12:23:57.969Z,10.20
2023-01-17T12:24:57.927Z,10.40
2023-01-17T12:25:57.958Z,9.50
2023-01-17T12:26:57.907Z,10.10
2023-01-17T12:27:57.917Z,10.30
2023-01-17T12:28:57.899Z,10.40
2023-01-17T12:29:57.896Z,10.30
2023-01-17T12:30:57.893Z,10.90
2023-01-17T12:31:57.893Z,10.70
2023-01-17T12:32:57.843Z,10.60
2023-01-17T12:33:57.868Z,11.00
2023-01-17T12:34:57.826Z,11.40
2023-01-17T12:35:57.848Z,10.50
2023-01-17T12:36:57.804Z,10.50
2023-01-17T12:38:04.940Z,11.70
2023-01-17T12:38:57.788Z,10.90
2023-01-17T12:39:57.816Z,11.10
2023-01-17T12:40:57.761Z,11.80
2023-01-17T12:41:57.778Z,11.50
2023-01-17T12:42:57.744Z,9.50
2023-01-17T12:43:57.756Z,9.10
2023-01-17T12:44:57.739Z,9.90
2023-01-17T12:45:57.734Z,8.70
2023-01-17T12:46:57.739Z,8.20
2023-01-17T12:47:57.693Z,7.70
2023-01-17T12:48:57.707Z,8.10
2023-01-17T12:49:57.672Z,8.90
2023-01-17T12:50:57.702Z,7.90
2023-01-17T12:51:57.649Z,8.50
2023-01-17T12:52:57.659Z,8.40
2023-01-17T12:53:57.626Z,8.70